SHT2W EGGP-EGLL
Flight info
| Callsign | SHT2W |
|---|---|
| Flight time | N/A |
| Altitude | 19000 |
| Route | NANTI L8 HON |
| Aircraft | A20N/M-SDE2E3FGHIRWXY/LB1 |
Departure
| Time | 2026-05-05 19:53 |
|---|---|
| Airport | Liverpool John Lennon Airport (EGGP) |
Arrival
| Time | N/A |
|---|---|
| Airport | London Heathrow Airport (EGLL) |
| Time | Latitude | Longitude | Altitude | Speed | Heading |
|---|---|---|---|---|---|
| 2026-05-05 19:37 | 53.33641 | -2.84943 | 95 ft | 0 kts | 84° |
| 2026-05-05 19:45 | 53.33640 | -2.84952 | 94 ft | 2 kts | 85° |
| 2026-05-05 19:45 | 53.33640 | -2.84970 | 95 ft | 2 kts | 85° |
| 2026-05-05 19:46 | 53.33638 | -2.84998 | 94 ft | 2 kts | 87° |
| 2026-05-05 19:46 | 53.33638 | -2.85025 | 92 ft | 2 kts | 91° |
| 2026-05-05 19:46 | 53.33639 | -2.85052 | 92 ft | 2 kts | 103° |
| 2026-05-05 19:46 | 53.33647 | -2.85076 | 93 ft | 2 kts | 171° |
| 2026-05-05 19:47 | 53.33652 | -2.85077 | 94 ft | 0 kts | 177° |
| 2026-05-05 19:48 | 53.33649 | -2.85076 | 93 ft | 2 kts | 177° |
| 2026-05-05 19:48 | 53.33621 | -2.85074 | 93 ft | 6 kts | 177° |
| 2026-05-05 19:49 | 53.33565 | -2.85065 | 94 ft | 10 kts | 169° |
| 2026-05-05 19:49 | 53.33532 | -2.84967 | 94 ft | 12 kts | 89° |
| 2026-05-05 19:49 | 53.33537 | -2.84809 | 97 ft | 15 kts | 85° |
| 2026-05-05 19:49 | 53.33546 | -2.84615 | 94 ft | 18 kts | 85° |
| 2026-05-05 19:50 | 53.33555 | -2.84388 | 95 ft | 21 kts | 84° |
| 2026-05-05 19:50 | 53.33568 | -2.84133 | 95 ft | 23 kts | 85° |
| 2026-05-05 19:50 | 53.33581 | -2.83853 | 94 ft | 25 kts | 86° |
| 2026-05-05 19:50 | 53.33589 | -2.83663 | 94 ft | 13 kts | 86° |
| 2026-05-05 19:51 | 53.33596 | -2.83489 | 97 ft | 14 kts | 85° |
| 2026-05-05 19:51 | 53.33584 | -2.83358 | 96 ft | 11 kts | 122° |
| 2026-05-05 19:51 | 53.33525 | -2.83300 | 94 ft | 9 kts | 194° |
| 2026-05-05 19:51 | 53.33454 | -2.83316 | 97 ft | 10 kts | 218° |
| 2026-05-05 19:52 | 53.33438 | -2.83382 | 96 ft | 0 kts | 260° |
| 2026-05-05 19:52 | 53.33438 | -2.83383 | 96 ft | 1 kts | 260° |
| 2026-05-05 19:53 | 53.33426 | -2.83588 | 94 ft | 48 kts | 265° |
| 2026-05-05 19:53 | 53.33382 | -2.84545 | 94 ft | 114 kts | 265° |
| 2026-05-05 19:53 | 53.33312 | -2.86109 | 279 ft | 143 kts | 269° |
| 2026-05-05 19:53 | 53.33224 | -2.87758 | 902 ft | 144 kts | 269° |
| 2026-05-05 19:54 | 53.33145 | -2.89473 | 1429 ft | 153 kts | 269° |
| 2026-05-05 19:54 | 53.33062 | -2.91362 | 1807 ft | 173 kts | 266° |
| 2026-05-05 19:54 | 53.32544 | -2.93291 | 2272 ft | 195 kts | 225° |
| 2026-05-05 19:54 | 53.31301 | -2.94414 | 2803 ft | 215 kts | 186° |
| 2026-05-05 19:55 | 53.29783 | -2.94125 | 3461 ft | 230 kts | 153° |
| 2026-05-05 19:55 | 53.28510 | -2.92399 | 4119 ft | 246 kts | 122° |
| 2026-05-05 19:55 | 53.27687 | -2.89776 | 4885 ft | 260 kts | 112° |
| 2026-05-05 19:55 | 53.26939 | -2.87051 | 5945 ft | 264 kts | 115° |
| 2026-05-05 19:56 | 53.26057 | -2.84353 | 7027 ft | 267 kts | 120° |
| 2026-05-05 19:56 | 53.25010 | -2.81640 | 7839 ft | 281 kts | 123° |
| 2026-05-05 19:56 | 53.23859 | -2.78954 | 8726 ft | 289 kts | 126° |
| 2026-05-05 19:56 | 53.22663 | -2.76281 | 9651 ft | 296 kts | 126° |
| 2026-05-05 19:57 | 53.21403 | -2.73503 | 10460 ft | 308 kts | 127° |
| 2026-05-05 19:57 | 53.20059 | -2.70550 | 10880 ft | 331 kts | 127° |
| 2026-05-05 19:57 | 53.18618 | -2.67379 | 11337 ft | 351 kts | 127° |
| 2026-05-05 19:57 | 53.17133 | -2.64106 | 12211 ft | 355 kts | 127° |
| 2026-05-05 19:58 | 53.15630 | -2.60792 | 13091 ft | 360 kts | 127° |
| 2026-05-05 19:58 | 53.14023 | -2.57556 | 13971 ft | 364 kts | 134° |
| 2026-05-05 19:58 | 53.12134 | -2.54723 | 14773 ft | 367 kts | 143° |
| 2026-05-05 19:58 | 53.10042 | -2.52250 | 15556 ft | 371 kts | 146° |
| 2026-05-05 19:59 | 53.07921 | -2.49775 | 16337 ft | 375 kts | 146° |
| 2026-05-05 19:59 | 53.05779 | -2.47263 | 17117 ft | 379 kts | 146° |
| 2026-05-05 19:59 | 53.03618 | -2.44725 | 17894 ft | 383 kts | 146° |
| 2026-05-05 19:59 | 53.01434 | -2.42158 | 18481 ft | 388 kts | 146° |
| 2026-05-05 20:00 | 52.99249 | -2.39594 | 18587 ft | 387 kts | 146° |
| 2026-05-05 20:00 | 52.97044 | -2.37015 | 18684 ft | 407 kts | 146° |
| 2026-05-05 20:00 | 52.94676 | -2.34254 | 18785 ft | 425 kts | 146° |
| 2026-05-05 20:00 | 52.92212 | -2.31378 | 18888 ft | 440 kts | 146° |
| 2026-05-05 20:01 | 52.89700 | -2.28446 | 18991 ft | 442 kts | 146° |
| 2026-05-05 20:01 | 52.87182 | -2.25508 | 19023 ft | 446 kts | 146° |
| 2026-05-05 20:01 | 52.84625 | -2.22531 | 19015 ft | 450 kts | 146° |
| 2026-05-05 20:01 | 52.82068 | -2.19556 | 19023 ft | 450 kts | 146° |
| 2026-05-05 20:02 | 52.79503 | -2.16577 | 19023 ft | 450 kts | 146° |
| 2026-05-05 20:02 | 52.76969 | -2.13641 | 19015 ft | 450 kts | 146° |
| 2026-05-05 20:02 | 52.74406 | -2.10674 | 19008 ft | 450 kts | 146° |
| 2026-05-05 20:02 | 52.71839 | -2.07709 | 19021 ft | 450 kts | 146° |
| 2026-05-05 20:03 | 52.69270 | -2.04747 | 19022 ft | 450 kts | 146° |
| 2026-05-05 20:03 | 52.66699 | -2.01787 | 19023 ft | 450 kts | 146° |
| 2026-05-05 20:03 | 52.64133 | -1.98834 | 19012 ft | 449 kts | 146° |
| 2026-05-05 20:03 | 52.61574 | -1.95893 | 19011 ft | 448 kts | 146° |
| 2026-05-05 20:04 | 52.59014 | -1.92957 | 19013 ft | 449 kts | 146° |
| 2026-05-05 20:04 | 52.56456 | -1.90026 | 19011 ft | 448 kts | 146° |
| 2026-05-05 20:04 | 52.53895 | -1.87097 | 19021 ft | 449 kts | 147° |
| 2026-05-05 20:04 | 52.51329 | -1.84167 | 19018 ft | 452 kts | 147° |
| 2026-05-05 20:05 | 52.48728 | -1.81202 | 19016 ft | 453 kts | 146° |
| 2026-05-05 20:05 | 52.46142 | -1.78257 | 19023 ft | 453 kts | 146° |
| 2026-05-05 20:05 | 52.43579 | -1.75343 | 19019 ft | 453 kts | 146° |
| 2026-05-05 20:05 | 52.40989 | -1.72401 | 19023 ft | 453 kts | 146° |
| 2026-05-05 20:06 | 52.38391 | -1.69455 | 19019 ft | 453 kts | 146° |
| 2026-05-05 20:06 | 52.35811 | -1.66491 | 19022 ft | 453 kts | 144° |
| 2026-05-05 20:06 | 52.33382 | -1.63191 | 19016 ft | 454 kts | 140° |
| 2026-05-05 20:06 | 52.30996 | -1.59811 | 19014 ft | 454 kts | 140° |
| 2026-05-05 20:07 | 52.28608 | -1.56431 | 19014 ft | 454 kts | 140° |
| 2026-05-05 20:07 | 52.26235 | -1.53083 | 19013 ft | 454 kts | 140° |
| 2026-05-05 20:07 | 52.23842 | -1.49718 | 19020 ft | 454 kts | 140° |
| 2026-05-05 20:07 | 52.21450 | -1.46362 | 19019 ft | 452 kts | 140° |
| 2026-05-05 20:08 | 52.19078 | -1.43039 | 19022 ft | 450 kts | 140° |
| 2026-05-05 20:08 | 52.16708 | -1.39726 | 19000 ft | 441 kts | 140° |
| 2026-05-05 20:08 | 52.14427 | -1.36538 | 18826 ft | 424 kts | 141° |
| 2026-05-05 20:08 | 52.12230 | -1.33472 | 18610 ft | 408 kts | 141° |
| 2026-05-05 20:09 | 52.10091 | -1.30492 | 17994 ft | 402 kts | 140° |
| 2026-05-05 20:09 | 52.07978 | -1.27555 | 17275 ft | 399 kts | 140° |
| 2026-05-05 20:09 | 52.05871 | -1.24632 | 16528 ft | 396 kts | 141° |
| 2026-05-05 20:09 | 52.03805 | -1.21766 | 16210 ft | 383 kts | 141° |
| 2026-05-05 20:10 | 52.01841 | -1.19043 | 16006 ft | 368 kts | 141° |
| 2026-05-05 20:10 | 51.99938 | -1.16408 | 15854 ft | 354 kts | 141° |
| 2026-05-05 20:10 | 51.98102 | -1.13868 | 15716 ft | 341 kts | 141° |
| 2026-05-05 20:10 | 51.96327 | -1.11419 | 15599 ft | 327 kts | 141° |
| 2026-05-05 20:11 | 51.94625 | -1.09072 | 15477 ft | 315 kts | 141° |
| 2026-05-05 20:11 | 51.92990 | -1.06820 | 15378 ft | 302 kts | 141° |
| 2026-05-05 20:11 | 51.91419 | -1.04658 | 15262 ft | 291 kts | 141° |
| 2026-05-05 20:11 | 51.89883 | -1.02546 | 14935 ft | 289 kts | 141° |
| 2026-05-05 20:12 | 51.88352 | -1.00443 | 14577 ft | 288 kts | 141° |
| 2026-05-05 20:12 | 51.86828 | -0.98355 | 14222 ft | 286 kts | 141° |
| 2026-05-05 20:12 | 51.85420 | -0.96080 | 13852 ft | 286 kts | 128° |
| 2026-05-05 20:12 | 51.84387 | -0.93376 | 13432 ft | 287 kts | 115° |
| 2026-05-05 20:13 | 51.83525 | -0.90466 | 13021 ft | 286 kts | 116° |